Time;durP1;ratioP1;P1;durP2;ratioP2;P2;SDS_P1;SDS_P2;PMS_P1;PMS_P2;Temp;Humidity;BMP_temperature;BMP_pressure;BME280_temperature;BME280_humidity;BME280_pressure;Samples;Min_cycle;Max_cycle;Signal;HPM_P1;HPM_P2
2021/09/17 00:02:20;;;;;;;0.70;0.60;;;;;;;13.52;100.00;-10800.81;6223995;22;20464;-72
2021/09/17 00:04:49;;;;;;;0.80;0.70;;;;;;;13.46;100.00;-10658.78;6277190;22;20398;-72
2021/09/17 00:07:16;;;;;;;0.70;0.70;;;;;;;13.42;100.00;-10461.53;6277009;22;20373;-71
2021/09/17 00:09:45;;;;;;;0.70;0.70;;;;;;;13.37;100.00;-10430.75;6250934;22;20399;-72
2021/09/17 00:12:12;;;;;;;1.73;1.63;;;;;;;13.38;100.00;-10334.94;6277100;22;20399;-71
2021/09/17 00:14:41;;;;;;;0.70;0.70;;;;;;;13.35;100.00;-10405.25;6225433;22;20471;-71
2021/09/17 00:17:08;;;;;;;0.70;0.70;;;;;;;13.27;100.00;-10394.44;6249482;22;20781;-72
2021/09/17 00:19:35;;;;;;;0.70;0.70;;;;;;;13.25;100.00;-10386.66;6277589;22;20385;-71
2021/09/17 00:22:03;;;;;;;0.70;0.70;;;;;;;13.23;100.00;-10421.78;6276812;22;20888;-71
2021/09/17 00:24:32;;;;;;;0.70;0.60;;;;;;;13.25;100.00;-10454.75;6250309;22;20519;-71
2021/09/17 00:27:00;;;;;;;0.70;0.70;;;;;;;13.29;100.00;-10503.09;6277563;22;20437;-71
2021/09/17 00:29:28;;;;;;;0.70;0.70;;;;;;;13.27;100.00;-10606.34;6250349;22;20828;-71
2021/09/17 00:32:01;;;;;;;0.70;0.70;;;;;;;13.24;100.00;-10600.97;6276748;22;20392;-71
2021/09/17 00:34:35;;;;;;;0.70;0.70;;;;;;;13.18;100.00;-10615.47;6252007;22;20367;-71
2021/09/17 00:37:11;;;;;;;0.70;0.70;;;;;;;13.15;100.00;-10574.81;6226775;22;20400;-71
2021/09/17 00:39:46;;;;;;;0.80;0.70;;;;;;;13.13;100.00;-10529.25;6249773;22;20437;-71
2021/09/17 00:42:17;;;;;;;0.70;0.70;;;;;;;13.20;100.00;-10275.13;6250801;22;20367;-72
2021/09/17 00:44:54;;;;;;;0.70;0.60;;;;;;;13.18;100.00;-10582.69;6275782;22;20399;-71
2021/09/17 00:47:25;;;;;;;0.80;0.80;;;;;;;13.45;100.00;-10088.25;6276346;22;20827;-71
2021/09/17 00:49:57;;;;;;;0.70;0.63;;;;;;;13.61;100.00;-9902.88;6224221;22;20390;-71
2021/09/17 00:52:52;;;;;;;0.70;0.70;;;;;;;13.70;100.00;-9853.19;6255486;22;20974;-72
2021/09/17 00:55:27;;;;;;;0.70;0.60;;;;;;;13.62;100.00;-10132.75;6248558;22;20432;-72
2021/09/17 00:58:05;;;;;;;0.80;0.80;;;;;;;13.67;100.00;-10373.13;6249998;22;20762;-71
2021/09/17 01:00:40;;;;;;;0.80;0.70;;;;;;;13.70;100.00;-11052.63;6249652;22;20743;-72
2021/09/17 01:03:19;;;;;;;0.70;0.70;;;;;;;13.77;100.00;-11507.91;6248598;22;20440;-71
2021/09/17 01:05:59;;;;;;;0.77;0.77;;;;;;;13.80;100.00;-12023.13;6276714;22;20375;-71
2021/09/17 01:08:39;;;;;;;0.80;0.80;;;;;;;13.82;100.00;-12439.88;6249418;22;20507;-71
2021/09/17 01:11:13;;;;;;;0.70;0.70;;;;;;;13.84;100.00;-12743.09;6249692;22;20405;-71
2021/09/17 01:13:52;;;;;;;0.70;0.70;;;;;;;13.87;100.00;-12864.69;6276399;22;20875;-71
2021/09/17 01:16:24;;;;;;;0.70;0.60;;;;;;;13.90;100.00;-12872.69;6275397;22;20727;-71
2021/09/17 01:19:19;;;;;;;0.70;0.67;;;;;;;13.90;100.00;-12930.72;6249325;22;20878;-71
2021/09/17 01:21:57;;;;;;;0.70;0.70;;;;;;;13.88;100.00;-12867.34;6276797;22;20713;-72
2021/09/17 01:24:29;;;;;;;0.70;0.70;;;;;;;13.93;100.00;-12792.31;6250186;22;20428;-72
2021/09/17 01:27:09;;;;;;;0.70;0.70;;;;;;;13.95;100.00;-12694.16;6249681;22;20409;-72
2021/09/17 01:29:38;;;;;;;0.80;0.80;;;;;;;13.98;100.00;-12573.41;6250208;22;20375;-71
2021/09/17 01:32:05;;;;;;;0.70;0.70;;;;;;;13.99;100.00;-12540.72;6275801;22;20407;-71
2021/09/17 01:34:32;;;;;;;0.70;0.70;;;;;;;13.99;100.00;-12512.94;6275830;22;20386;-71
2021/09/17 01:37:03;;;;;;;0.70;0.60;;;;;;;13.93;100.00;-12565.13;6276347;22;20367;-71
2021/09/17 01:39:30;;;;;;;0.70;0.70;;;;;;;13.99;100.00;-12361.47;6276343;22;20416;-71
2021/09/17 01:41:56;;;;;;;1.00;0.90;;;;;;;14.06;100.00;-12145.09;6276522;22;20387;-71
2021/09/17 01:44:24;;;;;;;1.73;1.63;;;;;;;14.02;100.00;-12023.44;6249619;22;20793;-71
2021/09/17 01:46:51;;;;;;;0.70;0.70;;;;;;;14.08;100.00;-11827.16;6276126;22;20463;-71
2021/09/17 01:49:18;;;;;;;0.70;0.70;;;;;;;14.11;100.00;-11653.25;6276661;22;20389;-71
2021/09/17 01:51:45;;;;;;;0.80;0.80;;;;;;;14.12;100.00;-11463.94;6248874;22;20398;-71
2021/09/17 01:54:13;;;;;;;0.70;0.60;;;;;;;14.11;100.00;-11345.09;6248540;22;20459;-71
2021/09/17 01:56:43;;;;;;;0.70;0.60;;;;;;;14.15;100.00;-11138.41;6276720;22;20450;-71
2021/09/17 01:59:10;;;;;;;0.70;0.67;;;;;;;14.20;100.00;-10893.88;6276629;22;20369;-71
2021/09/17 02:01:37;;;;;;;0.70;0.60;;;;;;;14.24;100.00;-10737.66;6276030;22;20428;-71
2021/09/17 02:04:04;;;;;;;0.70;0.60;;;;;;;14.24;100.00;-10565.84;6276124;22;20419;-72
2021/09/17 02:06:31;;;;;;;0.73;0.73;;;;;;;14.30;100.00;-10313.69;6276406;22;20694;-71
2021/09/17 02:08:58;;;;;;;0.70;0.70;;;;;;;14.39;100.00;-10061.72;6275693;22;20410;-71
2021/09/17 02:11:27;;;;;;;0.70;0.60;;;;;;;14.45;100.00;-9794.31;6249478;22;20475;-71
2021/09/17 02:14:01;;;;;;;0.70;0.60;;;;;;;14.44;100.00;-9680.41;6224695;22;20411;-71
2021/09/17 02:16:28;;;;;;;0.70;0.70;;;;;;;14.46;100.00;-9374.63;6248845;22;20449;-71
2021/09/17 02:18:55;;;;;;;0.70;0.60;;;;;;;14.46;100.00;-9152.06;6276334;22;20420;-71
2021/09/17 02:21:22;;;;;;;0.80;0.80;;;;;;;14.50;100.00;-8813.44;6249105;22;20436;-72
2021/09/17 02:23:49;;;;;;;0.70;0.70;;;;;;;14.47;100.00;-8701.91;6276438;22;20966;-72
2021/09/17 02:26:17;;;;;;;0.70;0.70;;;;;;;14.52;100.00;-8403.69;6248723;22;20505;-72
2021/09/17 02:29:08;;;;;;;2.20;0.90;;;;;;;14.49;100.00;-8249.19;6276464;22;20413;-73
2021/09/17 02:31:35;;;;;;;0.80;0.80;;;;;;;14.50;100.00;-7854.56;6275380;22;20391;-72
2021/09/17 02:34:02;;;;;;;0.70;0.60;;;;;;;14.50;100.00;-7644.50;6276621;22;20864;-72
2021/09/17 02:36:31;;;;;;;0.70;0.70;;;;;;;14.53;100.00;-7335.94;6251681;22;20398;-72
2021/09/17 02:38:57;;;;;;;0.70;0.70;;;;;;;14.57;100.00;-7032.38;6278119;22;20495;-72
2021/09/17 02:41:24;;;;;;;0.70;0.70;;;;;;;14.58;100.00;-6736.25;6250303;22;20410;-71
2021/09/17 02:43:51;;;;;;;0.80;0.77;;;;;;;14.57;100.00;-6384.31;6250897;22;20439;-72
2021/09/17 02:46:19;;;;;;;1.33;1.23;;;;;;;14.60;100.00;-6067.91;6253410;22;20406;-71
2021/09/17 02:48:46;;;;;;;0.70;0.70;;;;;;;14.62;100.00;-5736.25;6251358;22;20491;-71
2021/09/17 02:51:14;;;;;;;0.70;0.60;;;;;;;14.64;100.00;-5379.19;6250115;22;20406;-71
2021/09/17 02:53:40;;;;;;;0.80;0.80;;;;;;;14.66;100.00;-4958.75;6251558;22;20506;-71
2021/09/17 02:56:08;;;;;;;0.70;0.63;;;;;;;14.68;100.00;-4525.53;6250663;22;20865;-72
2021/09/17 02:58:36;;;;;;;0.80;0.73;;;;;;;14.67;100.00;-4180.94;6251270;22;20405;-71
2021/09/17 03:01:03;;;;;;;1.57;1.47;;;;;;;14.73;100.00;-3742.50;6277573;22;20390;-71
2021/09/17 03:03:32;;;;;;;0.70;0.70;;;;;;;14.73;100.00;-3557.50;6277581;22;20465;-71
2021/09/17 03:05:59;;;;;;;0.80;0.70;;;;;;;14.72;100.00;-3167.16;6278186;22;20388;-72
2021/09/17 03:08:26;;;;;;;0.80;0.70;;;;;;;14.70;100.00;-2959.31;6225291;22;20431;-71
2021/09/17 03:10:57;;;;;;;0.70;0.60;;;;;;;14.73;100.00;-2677.88;6225596;22;20462;-71
2021/09/17 03:13:27;;;;;;;0.70;0.70;;;;;;;14.76;100.00;-2320.28;6278158;22;20436;-71
2021/09/17 03:15:57;;;;;;;0.70;0.60;;;;;;;14.77;100.00;-2015.97;6277472;22;20374;-72
2021/09/17 03:18:26;;;;;;;0.70;0.70;;;;;;;14.82;100.00;-1559.22;6276007;22;20387;-71
2021/09/17 03:20:54;;;;;;;0.70;0.60;;;;;;;14.87;100.00;-1155.63;6224916;22;20390;-72
2021/09/17 03:23:21;;;;;;;1.00;0.77;;;;;;;14.84;100.00;-935.06;6277519;22;20408;-71
2021/09/17 03:25:49;;;;;;;0.70;0.67;;;;;;;14.82;100.00;-663.72;6277125;22;20813;-72
2021/09/17 03:28:16;;;;;;;0.70;0.60;;;;;;;14.88;100.00;-280.19;6277586;22;20427;-71
2021/09/17 03:30:43;;;;;;;0.70;0.70;;;;;;;14.86;100.00;-1.16;6277562;22;20374;-71
2021/09/17 03:33:11;;;;;;;0.70;0.60;;;;;;;14.90;100.00;316.38;6277521;22;20389;-71
2021/09/17 03:35:39;;;;;;;0.83;0.77;;;;;;;14.89;100.00;750.41;6277833;22;20397;-72
2021/09/17 03:38:08;;;;;;;0.70;0.70;;;;;;;14.89;100.00;994.06;6277282;22;20965;-71
2021/09/17 03:40:37;;;;;;;0.80;0.70;;;;;;;14.89;100.00;1062.63;6276634;22;20380;-72
2021/09/17 03:43:05;;;;;;;0.70;0.60;;;;;;;14.90;100.00;1441.06;6277203;22;20386;-72
2021/09/17 03:45:35;;;;;;;0.70;0.70;;;;;;;14.86;100.00;1681.91;6277543;22;20413;-71
2021/09/17 03:48:08;;;;;;;0.70;0.60;;;;;;;14.86;100.00;1994.25;6225110;22;20464;-71
2021/09/17 03:50:35;;;;;;;0.70;0.67;;;;;;;14.89;100.00;2279.00;6277599;22;20382;-71
2021/09/17 03:53:03;;;;;;;1.10;1.00;;;;;;;14.92;100.00;2589.19;6250411;22;20422;-71
2021/09/17 03:55:32;;;;;;;1.10;1.00;;;;;;;14.92;100.00;2695.81;6277112;22;20412;-71
2021/09/17 03:58:00;;;;;;;0.70;0.70;;;;;;;14.91;100.00;3015.78;6277063;22;20912;-72
2021/09/17 04:00:30;;;;;;;0.80;0.80;;;;;;;14.92;100.00;3386.91;6249905;22;20427;-72
2021/09/17 04:02:57;;;;;;;0.70;0.70;;;;;;;14.88;100.00;3665.88;6277228;22;20461;-71
2021/09/17 04:05:23;;;;;;;0.70;0.60;;;;;;;14.89;100.00;3909.94;6277589;22;20418;-71
2021/09/17 04:07:50;;;;;;;0.80;0.80;;;;;;;14.91;100.00;4179.56;6250457;22;20405;-71
2021/09/17 04:10:18;;;;;;;0.80;0.80;;;;;;;14.93;100.00;4383.16;6276827;22;20860;-72
2021/09/17 04:12:47;;;;;;;0.70;0.70;;;;;;;14.92;100.00;4510.13;6277239;22;20774;-71
2021/09/17 04:15:14;;;;;;;0.70;0.60;;;;;;;14.96;100.00;4930.09;6277303;22;20417;-71
2021/09/17 04:17:42;;;;;;;0.77;0.73;;;;;;;14.93;100.00;5227.09;6276408;22;20373;-71
2021/09/17 04:20:11;;;;;;;0.70;0.70;;;;;;;14.92;100.00;5376.84;6277193;22;20455;-72
2021/09/17 04:22:41;;;;;;;0.70;0.70;;;;;;;14.93;100.00;5455.91;6250318;22;20425;-71
2021/09/17 04:25:10;;;;;;;0.70;0.60;;;;;;;14.94;100.00;5834.81;6249404;22;20432;-72
2021/09/17 04:27:37;;;;;;;0.97;0.97;;;;;;;14.93;100.00;6012.72;6248884;22;20397;-72
2021/09/17 04:30:08;;;;;;;0.70;0.70;;;;;;;14.94;100.00;6269.66;6247467;22;20498;-71
2021/09/17 04:32:35;;;;;;;0.70;0.70;;;;;;;14.92;100.00;6488.09;6248005;22;20824;-71
2021/09/17 04:35:05;;;;;;;1.53;1.10;;;;;;;14.89;100.00;6769.88;6246804;22;20394;-72
2021/09/17 04:37:32;;;;;;;0.73;0.70;;;;;;;14.90;100.00;7057.44;6247430;22;20404;-71
2021/09/17 04:40:03;;;;;;;0.90;0.90;;;;;;;14.89;100.00;7164.09;6273688;22;20484;-72
2021/09/17 04:42:29;;;;;;;0.70;0.70;;;;;;;14.89;100.00;7423.44;6275366;22;20415;-71
2021/09/17 04:44:57;;;;;;;0.80;0.80;;;;;;;14.89;100.00;7604.16;6275295;22;20413;-71
2021/09/17 04:47:25;;;;;;;3.47;1.97;;;;;;;14.91;100.00;7897.13;6276527;22;20427;-72
2021/09/17 04:49:52;;;;;;;0.70;0.70;;;;;;;14.91;100.00;7815.59;6249810;22;20401;-71
2021/09/17 04:52:40;;;;;;;0.70;0.70;;;;;;;14.92;100.00;8075.41;6276998;22;20421;-72
2021/09/17 04:55:08;;;;;;;0.70;0.60;;;;;;;14.97;100.00;8442.88;6248872;22;20402;-73
2021/09/17 04:57:37;;;;;;;0.70;0.70;;;;;;;14.96;100.00;8544.44;6276478;22;20404;-71
2021/09/17 05:00:06;;;;;;;0.70;0.70;;;;;;;14.96;100.00;8697.16;6250173;22;20448;-72
2021/09/17 05:02:34;;;;;;;0.70;0.70;;;;;;;14.99;100.00;8967.47;6277266;22;20371;-72
2021/09/17 05:05:03;;;;;;;0.70;0.60;;;;;;;14.98;100.00;9132.81;6276681;22;20448;-72
2021/09/17 05:07:32;;;;;;;0.80;0.70;;;;;;;15.03;100.00;9423.91;6249652;22;20396;-71
2021/09/17 05:09:59;;;;;;;1.63;1.10;;;;;;;14.99;100.00;9489.31;6276946;22;20480;-71
2021/09/17 05:12:26;;;;;;;0.70;0.70;;;;;;;15.02;100.00;9851.50;6275300;22;20403;-72
2021/09/17 05:14:53;;;;;;;0.80;0.80;;;;;;;15.00;100.00;9807.78;6249939;22;20687;-71
2021/09/17 05:17:20;;;;;;;0.70;0.60;;;;;;;15.03;100.00;9984.16;6276202;22;20459;-71
2021/09/17 05:19:49;;;;;;;0.70;0.70;;;;;;;15.05;100.00;10256.97;6276870;22;20384;-71
2021/09/17 05:22:16;;;;;;;0.70;0.60;;;;;;;15.08;100.00;10484.34;6249701;22;20410;-71
2021/09/17 05:24:43;;;;;;;0.70;0.67;;;;;;;15.10;100.00;10770.09;6249426;22;20518;-71
2021/09/17 05:27:14;;;;;;;1.07;1.00;;;;;;;15.13;100.00;11061.25;6249482;22;20883;-72
2021/09/17 05:29:41;;;;;;;1.07;1.00;;;;;;;15.13;100.00;11303.25;6276967;22;20370;-71
2021/09/17 05:32:15;;;;;;;0.70;0.60;;;;;;;15.15;100.00;11393.06;6276376;22;20394;-72
2021/09/17 05:34:43;;;;;;;0.73;0.73;;;;;;;15.25;100.00;11803.25;6249955;22;20426;-71
2021/09/17 05:37:11;;;;;;;0.70;0.70;;;;;;;15.31;100.00;12250.91;6249335;22;20398;-71
2021/09/17 05:39:38;;;;;;;0.70;0.60;;;;;;;15.29;100.00;12387.88;6249741;22;20417;-72
2021/09/17 05:42:06;;;;;;;0.80;0.80;;;;;;;15.32;100.00;12781.47;6248987;22;20432;-71
2021/09/17 05:44:32;;;;;;;0.80;0.80;;;;;;;15.35;100.00;13185.03;6249825;22;20794;-71
2021/09/17 05:46:59;;;;;;;2.13;1.40;;;;;;;15.37;100.00;13586.16;6276215;22;20400;-71
2021/09/17 05:49:27;;;;;;;0.70;0.60;;;;;;;15.38;100.00;13693.56;6249102;22;20408;-71
2021/09/17 05:51:54;;;;;;;0.70;0.60;;;;;;;15.41;100.00;13898.50;6276350;22;20667;-71
2021/09/17 05:54:23;;;;;;;0.70;0.70;;;;;;;15.46;100.00;14047.97;6276067;22;20729;-71
2021/09/17 05:56:49;;;;;;;0.80;0.80;;;;;;;15.56;100.00;14535.47;6248867;22;20414;-71
2021/09/17 05:59:16;;;;;;;0.70;0.70;;;;;;;15.56;100.00;14890.22;6276719;22;20480;-72
2021/09/17 06:01:44;;;;;;;1.00;0.90;;;;;;;15.61;100.00;15269.75;6224171;22;20436;-71
2021/09/17 06:04:11;;;;;;;0.90;0.87;;;;;;;15.66;100.00;15845.63;6276331;22;20808;-71
2021/09/17 06:06:39;;;;;;;0.70;0.70;;;;;;;15.65;100.00;15852.97;6249525;22;20741;-71
2021/09/17 06:09:07;;;;;;;0.90;0.90;;;;;;;15.70;100.00;16406.41;6277749;22;20408;-72
2021/09/17 06:11:40;;;;;;;0.77;0.77;;;;;;;15.74;100.00;16770.13;6252576;22;20392;-72
2021/09/17 06:14:08;;;;;;;1.37;1.27;;;;;;;15.80;100.00;17278.22;6278347;22;20432;-72
2021/09/17 06:16:35;;;;;;;0.80;0.70;;;;;;;15.88;100.00;17781.94;6277997;22;20379;-71
2021/09/17 06:19:02;;;;;;;0.80;0.80;;;;;;;15.92;100.00;18238.19;6278722;22;20390;-72
2021/09/17 06:21:31;;;;;;;0.70;0.70;;;;;;;16.01;100.00;18814.03;6279018;22;20473;-72
2021/09/17 06:24:00;;;;;;;0.80;0.70;;;;;;;16.05;100.00;19344.94;6250969;22;20436;-72
2021/09/17 06:26:33;;;;;;;0.70;0.70;;;;;;;16.09;100.00;19850.44;6251098;22;20735;-71
2021/09/17 06:29:04;;;;;;;0.70;0.60;;;;;;;16.13;100.00;20179.50;6278201;22;20378;-71
2021/09/17 06:31:33;;;;;;;0.70;0.70;;;;;;;16.16;100.00;20636.19;6276698;22;20441;-72
2021/09/17 06:34:01;;;;;;;1.63;1.53;;;;;;;16.24;100.00;21320.34;6277859;22;20363;-72
2021/09/17 06:36:28;;;;;;;0.90;0.70;;;;;;;16.24;100.00;21724.84;6251558;22;20388;-72
2021/09/17 06:38:56;;;;;;;0.70;0.60;;;;;;;16.31;100.00;22152.91;6278378;22;20440;-71
2021/09/17 06:41:23;;;;;;;0.70;0.70;;;;;;;16.34;100.00;22848.09;6250218;22;20400;-73
2021/09/17 06:43:50;;;;;;;0.70;0.70;;;;;;;16.39;100.00;23442.13;6277916;22;20393;-72
2021/09/17 06:46:19;;;;;;;0.70;0.60;;;;;;;16.40;100.00;23763.09;6278317;22;20411;-72
2021/09/17 06:48:46;;;;;;;0.70;0.60;;;;;;;16.52;100.00;24424.34;6250569;22;20725;-72
2021/09/17 06:51:13;;;;;;;0.70;0.70;;;;;;;16.55;100.00;24979.53;6278030;22;20419;-72
2021/09/17 06:53:40;;;;;;;0.80;0.80;;;;;;;16.59;100.00;25817.50;6225805;22;20791;-72
2021/09/17 06:56:09;;;;;;;0.80;0.80;;;;;;;16.59;100.00;26263.81;6278244;22;20454;-72
2021/09/17 06:58:36;;;;;;;0.70;0.60;;;;;;;16.60;100.00;26754.31;6278326;22;20765;-72
2021/09/17 07:01:04;;;;;;;1.43;1.33;;;;;;;16.69;100.00;27638.88;6278206;22;20382;-71
2021/09/17 07:03:33;;;;;;;0.70;0.70;;;;;;;16.71;100.00;28392.06;6250492;22;20853;-72
2021/09/17 07:06:02;;;;;;;0.70;0.60;;;;;;;16.80;100.00;29419.28;6251436;22;20412;-72
2021/09/17 07:08:29;;;;;;;0.97;0.90;;;;;;;16.76;100.00;29846.03;6276781;22;20409;-71
2021/09/17 07:10:57;;;;;;;0.70;0.63;;;;;;;16.81;100.00;30342.06;6278071;22;20367;-72
2021/09/17 07:13:24;;;;;;;1.83;1.10;;;;;;;16.89;100.00;31269.22;6251006;22;20499;-72
2021/09/17 07:15:52;;;;;;;1.30;1.20;;;;;;;16.77;100.00;31616.59;6251408;22;20706;-72
2021/09/17 07:18:21;;;;;;;0.73;0.73;;;;;;;16.82;100.00;32175.06;6249980;22;20411;-72
2021/09/17 07:20:50;;;;;;;0.70;0.63;;;;;;;16.85;100.00;32983.91;6277545;22;20418;-72
2021/09/17 07:23:18;;;;;;;0.70;0.70;;;;;;;16.94;100.00;33470.03;6277763;22;20515;-72
2021/09/17 07:25:47;;;;;;;0.70;0.67;;;;;;;16.99;100.00;33673.81;6276848;22;20799;-72
2021/09/17 07:28:15;;;;;;;0.77;0.70;;;;;;;17.02;100.00;33830.34;6277977;22;20397;-72
2021/09/17 07:30:42;;;;;;;0.70;0.67;;;;;;;17.06;100.00;34136.47;6278046;22;20460;-71
2021/09/17 07:33:09;;;;;;;0.70;0.70;;;;;;;17.10;100.00;34393.44;6277809;22;20483;-71
2021/09/17 07:35:36;;;;;;;0.70;0.70;;;;;;;17.12;100.00;34343.22;6277883;22;20437;-72
2021/09/17 07:38:05;;;;;;;0.70;0.60;;;;;;;17.21;100.00;34179.06;6249951;22;20501;-71
2021/09/17 07:40:33;;;;;;;1.40;1.30;;;;;;;17.28;100.00;33437.03;6277712;22;20374;-72
2021/09/17 07:43:01;;;;;;;0.70;0.60;;;;;;;17.39;100.00;32486.13;6277223;22;20903;-71
2021/09/17 07:45:28;;;;;;;0.70;0.67;;;;;;;17.45;100.00;31192.94;6277668;22;20931;-71
2021/09/17 07:47:56;;;;;;;0.70;0.60;;;;;;;17.47;100.00;28833.25;6276994;22;20874;-72
2021/09/17 07:50:24;;;;;;;0.90;0.80;;;;;;;17.62;100.00;26034.28;6277651;22;20754;-71
2021/09/17 07:52:51;;;;;;;2.30;1.33;;;;;;;17.62;100.00;21715.81;6250384;22;20432;-72
2021/09/17 07:55:19;;;;;;;0.97;0.97;;;;;;;17.72;100.00;15545.84;6276203;22;20465;-72
2021/09/17 07:57:46;;;;;;;1.20;1.10;;;;;;;17.81;100.00;6284.91;6277557;22;20395;-72
2021/09/17 08:00:15;;;;;;;0.70;0.70;;;;;;;17.89;100.00;-5560.78;6277219;22;20429;-72
2021/09/17 08:02:43;;;;;;;1.40;1.20;;;;;;;17.73;100.00;-16227.88;6276708;22;20860;-72
2021/09/17 08:05:13;;;;;;;0.80;0.70;;;;;;;17.75;100.00;-20958.84;6250342;22;20423;-71
2021/09/17 08:07:40;;;;;;;5.60;1.23;;;;;;;17.69;100.00;-21161.63;6277439;22;20410;-72
2021/09/17 08:10:08;;;;;;;0.80;0.80;;;;;;;17.90;100.00;-21167.38;6249500;22;20407;-72
2021/09/17 08:12:37;;;;;;;1.33;1.10;;;;;;;17.78;100.00;-21164.22;6277433;22;20438;-72
2021/09/17 08:15:09;;;;;;;0.90;0.80;;;;;;;17.80;100.00;-21164.78;6277180;22;20369;-72
2021/09/17 08:17:36;;;;;;;1.50;1.20;;;;;;;17.94;100.00;-21168.34;6249556;22;20824;-72
2021/09/17 08:20:08;;;;;;;1.00;1.00;;;;;;;18.01;100.00;-21170.38;6250638;22;20369;-72
2021/09/17 08:22:35;;;;;;;0.70;0.70;;;;;;;18.14;100.00;-21173.66;6277275;22;20456;-73
2021/09/17 08:25:04;;;;;;;0.80;0.80;;;;;;;18.32;100.00;-21178.75;6249471;22;20981;-73
2021/09/17 08:27:31;;;;;;;1.43;1.07;;;;;;;18.35;100.00;-21179.56;6276750;22;20394;-72
2021/09/17 08:29:59;;;;;;;1.47;1.37;;;;;;;18.18;100.00;-21174.91;6276818;22;20382;-73
2021/09/17 08:32:26;;;;;;;4.70;0.90;;;;;;;18.14;100.00;-21173.81;6249293;22;20371;-72
2021/09/17 08:34:54;;;;;;;1.30;1.20;;;;;;;18.25;100.00;-21176.69;6276523;22;20387;-72
2021/09/17 08:37:21;;;;;;;0.70;0.70;;;;;;;18.28;100.00;-21177.66;6250347;22;20748;-72
2021/09/17 08:39:51;;;;;;;0.80;0.70;;;;;;;18.35;100.00;-21179.56;6251014;22;20836;-72
2021/09/17 08:42:18;;;;;;;0.87;0.80;;;;;;;18.52;100.00;-21184.09;6249622;22;20398;-72
2021/09/17 08:44:45;;;;;;;1.97;1.87;;;;;;;18.40;100.00;-21180.78;6250037;22;20388;-73
2021/09/17 08:47:18;;;;;;;1.07;0.97;;;;;;;18.57;100.00;-21185.44;6250023;22;20666;-72
2021/09/17 08:49:45;;;;;;;0.77;0.70;;;;;;;18.58;100.00;-21185.72;6277454;22;20410;-72
2021/09/17 08:52:12;;;;;;;0.73;0.70;;;;;;;18.64;100.00;-21187.09;6276554;22;20394;-72
2021/09/17 08:54:40;;;;;;;0.70;0.60;;;;;;;18.66;100.00;-21187.63;6277227;22;20415;-72
2021/09/17 08:57:08;;;;;;;0.70;0.60;;;;;;;18.63;100.00;-21186.97;6249777;22;20848;-72
2021/09/17 08:59:38;;;;;;;0.87;0.87;;;;;;;18.57;100.00;-21185.31;6277064;22;20832;-72
2021/09/17 09:02:25;;;;;;;0.80;0.70;;;;;;;18.82;100.00;-21192.16;6249459;22;20710;-73
2021/09/17 09:04:59;;;;;;;0.73;0.70;;;;;;;18.83;100.00;-21192.44;6249949;22;20390;-72
2021/09/17 09:07:27;;;;;;;0.70;0.63;;;;;;;18.83;100.00;-21192.31;6276742;22;20375;-72
2021/09/17 09:09:54;;;;;;;0.80;0.80;;;;;;;18.92;100.00;-21194.63;6276627;22;20449;-73
2021/09/17 09:12:23;;;;;;;0.80;0.77;;;;;;;18.90;100.00;-21194.22;6276419;22;20481;-73
2021/09/17 09:15:11;;;;;;;0.80;0.70;;;;;;;19.05;100.00;-21198.19;6249886;22;20414;-72
2021/09/17 09:17:39;;;;;;;1.00;0.90;;;;;;;19.11;100.00;-21199.81;6250201;22;20372;-71
2021/09/17 09:20:29;;;;;;;0.80;0.70;;;;;;;19.26;100.00;-21203.94;6276994;22;20755;-72
2021/09/17 09:23:09;;;;;;;1.13;1.03;;;;;;;19.14;100.00;-21200.50;6276381;22;20410;-72
2021/09/17 09:25:49;;;;;;;0.87;0.80;;;;;;;19.22;100.00;-21202.84;6276087;22;20381;-72
2021/09/17 09:28:18;;;;;;;2.10;1.70;;;;;;;19.26;100.00;-21203.94;6249504;22;20377;-72
2021/09/17 09:30:45;;;;;;;0.80;0.70;;;;;;;19.25;100.00;-21203.66;6276852;22;20365;-71
2021/09/17 09:33:25;;;;;;;1.83;1.33;;;;;;;19.15;100.00;-21200.91;6249967;22;20346;-71
2021/09/17 09:36:01;;;;;;;0.70;0.60;;;;;;;19.06;100.00;-21198.44;6277189;22;20360;-72
2021/09/17 09:38:35;;;;;;;1.10;1.00;;;;;;;19.27;100.00;-21204.19;6249785;22;20401;-73
2021/09/17 09:41:05;;;;;;;1.13;1.03;;;;;;;19.35;100.00;-21206.13;6276412;22;20368;-72
2021/09/17 09:43:37;;;;;;;0.77;0.70;;;;;;;19.45;100.00;-21209.00;6276124;22;20404;-72
2021/09/17 09:46:22;;;;;;;0.80;0.70;;;;;;;19.45;100.00;-21208.84;6276925;22;20393;-72
2021/09/17 09:49:25;;;;;;;0.80;0.80;;;;;;;19.42;100.00;-21208.03;6249357;22;20726;-72
2021/09/17 09:51:58;;;;;;;0.70;0.70;;;;;;;19.42;100.00;-21208.03;6277003;22;20382;-72
2021/09/17 09:54:28;;;;;;;1.03;0.93;;;;;;;19.60;100.00;-21212.81;6276266;22;20421;-74
2021/09/17 09:56:56;;;;;;;1.43;1.23;;;;;;;19.30;100.00;-21205.03;6224479;22;20366;-73
2021/09/17 09:59:26;;;;;;;0.73;0.67;;;;;;;19.50;100.00;-21210.22;6276144;22;20376;-73
2021/09/17 10:01:58;;;;;;;0.70;0.70;;;;;;;19.74;100.00;-21216.66;6250259;22;20370;-72
2021/09/17 10:04:28;;;;;;;0.80;0.70;;;;;;;19.86;100.00;-21219.78;6276586;22;20400;-70
2021/09/17 10:07:04;;;;;;;0.77;0.73;;;;;;;19.79;100.00;-21218.16;6249469;22;20405;-70
2021/09/17 10:09:31;;;;;;;0.70;0.70;;;;;;;20.11;100.00;-21226.63;6276265;22;20414;-70
2021/09/17 10:11:59;;;;;;;0.80;0.70;;;;;;;21.03;100.00;-21251.19;6276144;22;20400;-71
2021/09/17 10:14:28;;;;;;;0.80;0.70;;;;;;;22.15;100.00;-21281.19;6250139;22;20358;-70
2021/09/17 10:16:57;;;;;;;2.30;1.53;;;;;;;23.55;100.00;-21318.47;6249346;22;20776;-71
2021/09/17 10:19:25;;;;;;;0.70;0.50;;;;;;;23.96;100.00;-21329.34;6276287;22;20368;-70
2021/09/17 10:21:59;;;;;;;0.70;0.60;;;;;;;24.45;100.00;-21342.41;6248507;22;20769;-72
2021/09/17 10:24:41;;;;;;;0.80;0.70;;;;;;;24.25;100.00;-21337.09;6275538;22;20878;-71
2021/09/17 10:27:18;;;;;;;0.80;0.60;;;;;;;24.62;100.00;-21346.75;6275748;22;20500;-71
2021/09/17 10:29:55;;;;;;;2.30;1.67;;;;;;;25.17;100.00;-21361.41;6249618;22;20368;-70
2021/09/17 10:32:37;;;;;;;0.90;0.70;;;;;;;25.89;100.00;-21380.63;6276220;22;20371;-70
2021/09/17 10:35:10;;;;;;;0.80;0.80;;;;;;;26.45;100.00;-21395.53;6249311;22;20367;-70
2021/09/17 10:38:10;;;;;;;1.07;0.97;;;;;;;25.86;100.00;-21379.69;6249240;22;20411;-71
2021/09/17 10:40:53;;;;;;;1.30;1.10;;;;;;;25.79;100.00;-21377.94;6248759;22;20399;-70
2021/09/17 10:43:33;;;;;;;0.80;0.70;;;;;;;25.89;100.00;-21380.50;6276611;22;20458;-71
2021/09/17 10:46:29;;;;;;;1.43;1.33;;;;;;;25.40;100.00;-21367.50;6248604;22;20464;-70
2021/09/17 10:48:59;;;;;;;1.33;1.23;;;;;;;25.52;100.00;-21370.75;6276183;22;20355;-71
2021/09/17 10:51:29;;;;;;;1.23;1.10;;;;;;;25.62;100.00;-21373.31;6276115;22;20406;-71
2021/09/17 10:53:58;;;;;;;0.80;0.80;;;;;;;26.39;100.00;-21393.91;6275999;22;20402;-71
2021/09/17 10:56:26;;;;;;;1.10;1.00;;;;;;;26.89;100.00;-21407.03;6277544;22;20411;-71
2021/09/17 10:59:14;;;;;;;0.80;0.67;;;;;;;27.04;100.00;-21411.09;6250542;22;20395;-70
2021/09/17 11:01:49;;;;;;;0.80;0.63;;;;;;;27.33;100.00;-21418.81;6278934;22;20821;-71
2021/09/17 11:04:20;;;;;;;1.17;0.63;;;;;;;27.64;100.00;-21426.91;6279021;22;20410;-71
2021/09/17 11:06:47;;;;;;;0.80;0.70;;;;;;;26.12;100.00;-21386.72;6251562;22;20413;-71
2021/09/17 11:09:42;;;;;;;0.80;0.80;;;;;;;25.72;100.00;-21376.03;6277905;22;20453;-70
2021/09/17 11:12:17;;;;;;;0.90;0.60;;;;;;;25.63;100.00;-21373.59;6250625;22;20792;-71
2021/09/17 11:14:58;;;;;;;1.33;1.23;;;;;;;26.62;100.00;-21400.00;6250614;22;20402;-71
2021/09/17 11:17:39;;;;;;;1.10;0.90;;;;;;;26.61;100.00;-21399.59;6277409;22;20372;-70
2021/09/17 11:20:11;;;;;;;0.70;0.50;;;;;;;26.93;100.00;-21408.25;6251882;22;20355;-70
2021/09/17 11:23:00;;;;;;;0.90;0.60;;;;;;;27.45;100.00;-21422.03;6277840;22;20427;-70
2021/09/17 11:25:31;;;;;;;2.10;0.93;;;;;;;28.05;100.00;-21437.84;6277135;22;20458;-70
2021/09/17 11:27:59;;;;;;;1.13;1.03;;;;;;;27.96;100.00;-21435.28;6250768;22;20500;-71
2021/09/17 11:30:30;;;;;;;0.70;0.60;;;;;;;27.05;100.00;-21411.22;6250809;22;20406;-71
2021/09/17 11:32:57;;;;;;;0.93;0.80;;;;;;;26.48;100.00;-21396.34;6277467;22;20471;-70
2021/09/17 11:35:24;;;;;;;0.70;0.60;;;;;;;26.33;100.00;-21392.28;6277660;22;20474;-70
2021/09/17 11:37:53;;;;;;;1.00;0.90;;;;;;;26.62;100.00;-21399.88;6277486;22;20445;-71